createdAt,value
2023-03-31T00:00:18.902Z,10.85
2023-03-31T00:02:46.273Z,10.95
2023-03-31T00:05:18.319Z,12.52
2023-03-31T00:07:46.204Z,16.00
2023-03-31T00:10:18.247Z,16.40
2023-03-31T00:12:46.581Z,17.85
2023-03-31T00:15:13.309Z,18.33
2023-03-31T00:17:40.149Z,19.27
2023-03-31T00:20:12.380Z,19.27
2023-03-31T00:22:42.405Z,16.45
2023-03-31T00:25:15.414Z,19.73
2023-03-31T00:27:45.407Z,18.25
2023-03-31T00:30:15.767Z,16.92
2023-03-31T00:32:42.758Z,16.42
2023-03-31T00:35:09.991Z,17.38
2023-03-31T00:37:36.680Z,12.73
2023-03-31T00:40:10.130Z,15.77
2023-03-31T00:42:44.134Z,15.52
2023-03-31T00:45:13.753Z,9.77
2023-03-31T00:47:48.245Z,8.43
2023-03-31T00:50:18.917Z,11.23
2023-03-31T00:52:46.236Z,9.95
2023-03-31T00:55:16.892Z,12.68
2023-03-31T00:57:45.433Z,10.98
2023-03-31T01:00:15.954Z,15.10
2023-03-31T01:02:56.108Z,13.65
2023-03-31T01:05:26.211Z,15.45
2023-03-31T01:07:53.101Z,16.77
2023-03-31T01:10:20.111Z,16.73
2023-03-31T01:12:50.305Z,16.40
2023-03-31T01:15:17.078Z,16.88
2023-03-31T01:17:45.071Z,18.85
2023-03-31T01:20:38.741Z,17.90
2023-03-31T01:23:08.451Z,17.85
2023-03-31T01:26:07.926Z,15.90
2023-03-31T01:28:46.790Z,15.63
2023-03-31T01:31:22.306Z,15.45
2023-03-31T01:34:01.007Z,16.45
2023-03-31T01:36:52.379Z,13.35
2023-03-31T01:39:45.420Z,15.27
2023-03-31T01:42:35.468Z,14.15
2023-03-31T01:45:19.236Z,14.98
2023-03-31T01:48:00.048Z,13.50
2023-03-31T01:50:31.042Z,14.85
2023-03-31T01:53:33.758Z,13.00
2023-03-31T01:56:32.754Z,15.18
2023-03-31T01:59:01.873Z,8.52
2023-03-31T02:01:38.095Z,13.30
2023-03-31T02:04:16.632Z,15.15
2023-03-31T02:06:50.164Z,15.65
2023-03-31T02:09:21.135Z,14.90
2023-03-31T02:11:48.573Z,7.82
2023-03-31T02:14:18.912Z,4.95
2023-03-31T02:16:47.611Z,5.35
2023-03-31T02:19:18.833Z,5.55
2023-03-31T02:21:50.163Z,9.73
2023-03-31T02:24:18.561Z,9.15
2023-03-31T02:27:20.771Z,4.88
2023-03-31T02:29:47.824Z,4.47
2023-03-31T02:32:14.398Z,5.40
2023-03-31T02:34:41.498Z,3.90
2023-03-31T02:37:08.586Z,3.28
2023-03-31T02:39:37.046Z,5.22
2023-03-31T02:42:07.612Z,4.80
2023-03-31T02:44:35.612Z,8.52
2023-03-31T02:47:04.434Z,4.82
2023-03-31T02:49:31.722Z,8.40
2023-03-31T02:52:16.999Z,7.53
2023-03-31T02:55:05.073Z,6.35
2023-03-31T02:57:53.191Z,5.13
2023-03-31T03:00:28.750Z,7.80
2023-03-31T03:02:55.633Z,5.95
2023-03-31T03:05:22.266Z,5.38
2023-03-31T03:08:00.566Z,4.78
2023-03-31T03:10:32.913Z,6.53
2023-03-31T03:13:36.892Z,6.88
2023-03-31T03:16:14.071Z,5.28
2023-03-31T03:18:40.925Z,5.28
2023-03-31T03:21:07.580Z,7.45
2023-03-31T03:23:34.261Z,5.20
2023-03-31T03:26:01.193Z,7.85
2023-03-31T03:28:27.935Z,6.47
2023-03-31T03:30:54.632Z,4.95
2023-03-31T03:33:25.067Z,9.90
2023-03-31T03:35:52.067Z,10.82
2023-03-31T03:38:18.779Z,12.65
2023-03-31T03:40:46.656Z,15.25
2023-03-31T03:45:41.405Z,8.55
2023-03-31T03:48:08.099Z,10.65
2023-03-31T03:50:36.825Z,11.18
2023-03-31T03:53:03.509Z,13.13
2023-03-31T03:55:30.199Z,17.63
2023-03-31T03:57:56.816Z,13.13
2023-03-31T04:00:23.610Z,16.15
2023-03-31T04:02:50.271Z,16.40
2023-03-31T04:05:17.249Z,17.52
2023-03-31T04:07:43.931Z,16.13
2023-03-31T04:10:11.022Z,16.10
2023-03-31T04:12:37.785Z,13.30
2023-03-31T04:15:05.666Z,14.93
2023-03-31T04:17:36.838Z,16.52
2023-03-31T04:20:09.802Z,14.25
2023-03-31T04:22:41.149Z,15.30
2023-03-31T04:25:10.622Z,13.20
2023-03-31T04:27:37.344Z,15.98
2023-03-31T04:30:04.272Z,15.32
2023-03-31T04:32:33.229Z,15.70
2023-03-31T04:35:02.910Z,13.45
2023-03-31T04:37:34.776Z,12.30
2023-03-31T04:40:09.687Z,15.88
2023-03-31T04:42:36.703Z,14.43
2023-03-31T04:45:03.675Z,16.80
2023-03-31T04:47:30.398Z,14.85
2023-03-31T04:49:57.178Z,16.45
2023-03-31T04:52:23.879Z,17.95
2023-03-31T04:54:50.504Z,22.08
2023-03-31T04:57:18.550Z,21.98
2023-03-31T04:59:46.063Z,23.65
2023-03-31T05:02:12.791Z,23.17
2023-03-31T05:04:39.461Z,22.88
2023-03-31T05:07:06.306Z,22.67
2023-03-31T05:09:35.005Z,21.75
2023-03-31T05:12:01.805Z,23.42
2023-03-31T05:14:29.046Z,23.13
2023-03-31T05:16:58.215Z,23.23
2023-03-31T05:21:51.669Z,21.98
2023-03-31T05:24:18.412Z,26.67
2023-03-31T05:26:52.701Z,21.27
2023-03-31T05:29:19.729Z,22.83
2023-03-31T05:31:48.222Z,24.02
2023-03-31T05:34:15.543Z,25.58
2023-03-31T05:36:43.470Z,26.48
2023-03-31T05:39:10.458Z,27.45
2023-03-31T05:41:37.144Z,25.85
2023-03-31T05:44:17.876Z,25.27
2023-03-31T05:46:57.821Z,26.58
2023-03-31T05:49:24.470Z,27.60
2023-03-31T05:51:58.811Z,30.00
2023-03-31T05:54:25.694Z,28.95
2023-03-31T05:56:58.863Z,31.92
2023-03-31T05:59:32.848Z,28.20
2023-03-31T06:02:05.947Z,31.00
2023-03-31T06:04:33.005Z,30.10
2023-03-31T06:07:00.190Z,25.33
2023-03-31T06:09:33.846Z,30.90
2023-03-31T06:12:00.530Z,30.77
2023-03-31T06:14:34.857Z,31.77
2023-03-31T06:17:01.677Z,33.97
2023-03-31T06:19:34.861Z,33.03
2023-03-31T06:22:07.853Z,35.83
2023-03-31T06:24:34.539Z,32.00
2023-03-31T06:27:07.854Z,34.40
2023-03-31T06:29:34.827Z,34.83
2023-03-31T06:32:10.030Z,35.67
2023-03-31T06:34:42.868Z,36.92
2023-03-31T06:37:15.859Z,35.30
2023-03-31T06:39:50.875Z,38.80
2023-03-31T06:42:23.903Z,33.63
2023-03-31T06:45:03.859Z,37.33
2023-03-31T06:47:30.786Z,35.30
2023-03-31T06:50:03.854Z,38.70
2023-03-31T06:52:37.875Z,38.10
2023-03-31T06:55:04.885Z,41.22
2023-03-31T06:57:40.878Z,37.17
2023-03-31T07:00:08.714Z,29.50
2023-03-31T07:02:43.970Z,28.35
2023-03-31T07:05:11.147Z,23.38
2023-03-31T07:07:37.863Z,24.08
2023-03-31T07:10:10.876Z,24.98
2023-03-31T07:12:43.894Z,23.05
2023-03-31T07:15:10.960Z,25.13
2023-03-31T07:17:43.926Z,26.80
2023-03-31T07:20:16.184Z,25.38
2023-03-31T07:22:49.860Z,27.60
2023-03-31T07:25:17.816Z,25.08
2023-03-31T07:27:50.899Z,26.02
2023-03-31T07:30:19.756Z,26.17
2023-03-31T07:32:47.966Z,25.27
2023-03-31T07:35:15.066Z,23.27
2023-03-31T07:37:44.429Z,20.80
2023-03-31T07:42:38.910Z,17.40
2023-03-31T07:45:09.004Z,20.10
2023-03-31T07:47:36.376Z,17.23
2023-03-31T07:50:03.421Z,13.05
2023-03-31T07:52:30.131Z,10.98
2023-03-31T07:54:56.780Z,10.50
2023-03-31T07:57:23.493Z,11.90
2023-03-31T07:59:50.248Z,11.77
2023-03-31T08:02:17.863Z,13.20
2023-03-31T08:04:45.426Z,12.18
2023-03-31T08:07:13.260Z,12.18
2023-03-31T08:09:41.156Z,10.85
2023-03-31T08:12:07.840Z,12.93
2023-03-31T08:14:40.637Z,12.32
2023-03-31T08:17:09.043Z,12.85
2023-03-31T08:19:35.744Z,12.25
2023-03-31T08:22:02.946Z,10.30
2023-03-31T08:24:29.649Z,13.15
2023-03-31T08:26:56.461Z,13.73
2023-03-31T08:29:23.104Z,13.00
2023-03-31T08:31:49.808Z,14.27
2023-03-31T08:34:16.560Z,16.02
2023-03-31T08:36:43.447Z,15.82
2023-03-31T08:39:10.230Z,16.30
2023-03-31T08:41:59.720Z,17.33
2023-03-31T08:44:34.766Z,17.88
2023-03-31T08:47:02.373Z,17.67
2023-03-31T08:49:33.715Z,17.60
2023-03-31T08:52:03.255Z,16.17
2023-03-31T08:54:52.093Z,15.65
2023-03-31T08:57:26.270Z,14.98
2023-03-31T08:59:53.090Z,14.55
2023-03-31T09:02:22.908Z,16.08
2023-03-31T09:05:22.831Z,17.35
2023-03-31T09:07:55.922Z,17.27
2023-03-31T09:10:34.023Z,16.25
2023-03-31T09:13:06.607Z,17.13
2023-03-31T09:15:58.765Z,17.45
2023-03-31T09:18:32.479Z,15.90
2023-03-31T09:21:29.655Z,17.90
2023-03-31T09:24:11.099Z,19.98
2023-03-31T09:26:41.433Z,19.63
2023-03-31T09:29:18.781Z,19.55
2023-03-31T09:31:46.848Z,18.65
2023-03-31T09:34:17.631Z,17.77
2023-03-31T09:36:44.434Z,15.77
2023-03-31T09:39:15.314Z,14.07
2023-03-31T09:41:45.671Z,14.65
2023-03-31T09:44:32.155Z,14.68
2023-03-31T09:46:59.563Z,13.68
2023-03-31T09:49:28.556Z,12.88
2023-03-31T09:52:02.856Z,12.52
2023-03-31T09:54:35.683Z,12.48
2023-03-31T09:57:02.565Z,10.05
2023-03-31T09:59:36.091Z,11.23
2023-03-31T10:02:07.298Z,11.68
2023-03-31T10:04:35.649Z,10.85
2023-03-31T10:07:04.983Z,12.25
2023-03-31T10:12:24.333Z,12.02
2023-03-31T10:14:53.609Z,14.25
2023-03-31T10:17:24.793Z,12.73
2023-03-31T10:20:13.285Z,12.52
2023-03-31T10:22:44.621Z,28.73
2023-03-31T10:25:18.252Z,13.55
2023-03-31T10:27:47.977Z,15.98
2023-03-31T10:30:22.107Z,14.75
2023-03-31T10:32:52.563Z,15.73
2023-03-31T10:35:33.003Z,22.55
2023-03-31T10:38:05.919Z,24.02
2023-03-31T10:40:33.930Z,19.42
2023-03-31T10:43:13.266Z,21.75
2023-03-31T10:45:56.437Z,21.60
2023-03-31T10:48:29.163Z,19.27
2023-03-31T10:51:01.263Z,18.33
2023-03-31T10:53:27.969Z,13.50
2023-03-31T10:56:08.028Z,13.65
2023-03-31T10:59:06.028Z,14.15
2023-03-31T11:01:43.370Z,14.48
2023-03-31T11:04:43.745Z,14.18
2023-03-31T11:07:32.461Z,12.57
2023-03-31T11:10:21.042Z,13.43
2023-03-31T11:12:59.717Z,13.95
2023-03-31T11:15:31.049Z,14.00
2023-03-31T11:18:04.448Z,9.38
2023-03-31T11:21:10.744Z,10.90
2023-03-31T11:23:44.624Z,10.32
2023-03-31T11:26:32.911Z,10.20
2023-03-31T11:29:22.376Z,10.02
2023-03-31T11:32:28.766Z,10.20
2023-03-31T11:35:56.829Z,9.65
2023-03-31T11:38:50.896Z,10.13
2023-03-31T11:41:21.713Z,18.98
2023-03-31T11:43:56.768Z,32.65
2023-03-31T11:46:38.729Z,22.70
2023-03-31T11:49:14.616Z,14.20
2023-03-31T11:52:02.797Z,10.60
2023-03-31T11:54:34.743Z,12.13
2023-03-31T11:57:16.217Z,23.50
2023-03-31T12:02:58.050Z,14.93
2023-03-31T12:05:27.025Z,14.80
2023-03-31T12:08:06.344Z,13.98
2023-03-31T12:10:37.886Z,14.55
2023-03-31T12:13:28.763Z,12.25
2023-03-31T12:16:31.858Z,12.15
2023-03-31T12:19:17.046Z,11.23
2023-03-31T12:21:48.556Z,13.10
2023-03-31T12:24:15.630Z,12.25
2023-03-31T12:27:12.727Z,18.95
2023-03-31T12:29:43.479Z,12.23
2023-03-31T12:32:22.439Z,14.75
2023-03-31T12:34:57.783Z,19.45
2023-03-31T12:40:02.717Z,11.85
2023-03-31T12:42:51.978Z,11.30
2023-03-31T12:45:31.839Z,11.27
2023-03-31T12:48:17.110Z,11.95
2023-03-31T12:51:14.356Z,12.48
2023-03-31T12:54:14.737Z,13.60
2023-03-31T12:57:16.938Z,12.98
2023-03-31T12:59:45.204Z,12.82
2023-03-31T13:02:22.226Z,16.88
2023-03-31T13:04:50.651Z,15.93
2023-03-31T13:07:29.261Z,18.58
2023-03-31T13:09:57.760Z,14.68
2023-03-31T13:15:15.047Z,20.90
2023-03-31T13:17:42.674Z,16.90
2023-03-31T13:20:32.495Z,14.57
2023-03-31T13:23:19.889Z,13.63
2023-03-31T13:25:51.868Z,14.32
2023-03-31T13:28:18.517Z,12.70
2023-03-31T13:30:47.725Z,12.65
2023-03-31T13:35:55.141Z,13.23
2023-03-31T13:38:42.124Z,14.93
2023-03-31T13:41:33.074Z,14.02
2023-03-31T13:43:59.711Z,15.18
2023-03-31T13:46:36.623Z,17.02
2023-03-31T13:49:07.867Z,17.27
2023-03-31T13:51:52.740Z,18.08
2023-03-31T13:54:45.105Z,17.50
2023-03-31T13:57:42.628Z,18.60
2023-03-31T14:00:18.701Z,18.80
2023-03-31T14:03:13.760Z,18.80
2023-03-31T14:05:45.597Z,22.45
2023-03-31T14:08:18.566Z,17.25
2023-03-31T14:10:45.272Z,11.43
2023-03-31T14:13:12.184Z,14.38
2023-03-31T14:15:50.837Z,15.60
2023-03-31T14:18:29.718Z,13.73
2023-03-31T14:21:18.099Z,13.13
2023-03-31T14:24:07.851Z,14.55
2023-03-31T14:27:00.936Z,15.98
2023-03-31T14:29:40.055Z,14.05
2023-03-31T14:32:24.961Z,15.50
2023-03-31T14:35:01.767Z,18.08
2023-03-31T14:37:29.545Z,15.55
2023-03-31T14:39:57.568Z,15.25
2023-03-31T14:42:38.235Z,17.67
2023-03-31T14:45:09.921Z,15.88
2023-03-31T14:47:36.644Z,11.38
2023-03-31T14:50:13.765Z,14.02
2023-03-31T14:52:41.106Z,11.45
2023-03-31T14:55:15.624Z,11.48
2023-03-31T14:57:43.644Z,17.13
2023-03-31T15:00:14.943Z,12.10
2023-03-31T15:02:42.711Z,9.52
2023-03-31T15:05:19.148Z,9.07
2023-03-31T15:07:45.983Z,10.45
2023-03-31T15:10:20.638Z,10.23
2023-03-31T15:12:48.765Z,9.00
2023-03-31T15:15:16.443Z,10.90
2023-03-31T15:17:43.747Z,9.82
2023-03-31T15:20:31.141Z,11.68
2023-03-31T15:22:59.508Z,10.65
2023-03-31T15:25:31.378Z,11.55
2023-03-31T15:28:01.638Z,9.15
2023-03-31T15:30:29.508Z,11.18
2023-03-31T15:33:04.410Z,10.52
2023-03-31T15:35:42.541Z,12.25
2023-03-31T15:38:12.165Z,11.80
2023-03-31T15:40:44.005Z,9.85
2023-03-31T15:45:49.726Z,11.00
2023-03-31T15:48:21.521Z,9.90
2023-03-31T15:50:48.888Z,10.95
2023-03-31T15:53:25.839Z,11.02
2023-03-31T15:55:55.935Z,21.83
2023-03-31T15:58:27.097Z,15.75
2023-03-31T16:00:54.528Z,15.40
2023-03-31T16:03:38.108Z,20.48
2023-03-31T16:06:27.953Z,15.50
2023-03-31T16:09:08.313Z,18.27
2023-03-31T16:11:42.766Z,19.45
2023-03-31T16:17:12.110Z,22.30
2023-03-31T16:19:45.966Z,12.13
2023-03-31T16:22:16.717Z,14.38
2023-03-31T16:24:43.660Z,24.73
2023-03-31T16:27:10.593Z,16.67
2023-03-31T16:29:39.157Z,17.50
2023-03-31T16:32:19.424Z,14.38
2023-03-31T16:35:00.705Z,16.73
2023-03-31T16:37:27.697Z,21.73
2023-03-31T16:39:54.368Z,15.95
2023-03-31T16:42:21.636Z,17.25
2023-03-31T16:44:59.957Z,21.67
2023-03-31T16:47:35.876Z,24.25
2023-03-31T16:50:07.442Z,18.52
2023-03-31T16:52:34.836Z,20.30
2023-03-31T16:55:01.515Z,23.92
2023-03-31T16:57:28.427Z,24.08
2023-03-31T16:59:57.346Z,31.30
2023-03-31T17:02:25.135Z,28.98
2023-03-31T17:04:54.275Z,31.40
2023-03-31T17:07:23.322Z,31.92
2023-03-31T17:09:50.002Z,29.90
2023-03-31T17:12:16.658Z,33.05
2023-03-31T17:14:43.394Z,28.90
2023-03-31T17:17:10.141Z,32.25
2023-03-31T17:19:37.072Z,28.42
2023-03-31T17:22:03.985Z,29.77
2023-03-31T17:24:30.823Z,58.58
2023-03-31T17:26:57.865Z,44.45
2023-03-31T17:29:24.875Z,36.75
2023-03-31T17:31:51.648Z,28.60
2023-03-31T17:34:18.445Z,35.33
2023-03-31T17:36:45.258Z,23.45
2023-03-31T17:39:12.193Z,46.45
2023-03-31T17:41:39.040Z,47.63
2023-03-31T17:44:07.859Z,40.80
2023-03-31T17:46:35.122Z,86.10
2023-03-31T17:49:01.796Z,45.05
2023-03-31T17:51:28.986Z,44.60
2023-03-31T17:53:56.403Z,36.00
2023-03-31T17:56:23.880Z,30.73
2023-03-31T17:58:51.226Z,31.83
2023-03-31T18:01:19.226Z,29.27
2023-03-31T18:03:46.542Z,30.38
2023-03-31T18:06:14.336Z,32.95
2023-03-31T18:08:41.843Z,24.70
2023-03-31T18:11:28.267Z,25.50
2023-03-31T18:13:55.593Z,29.30
2023-03-31T18:16:22.256Z,33.10
2023-03-31T18:18:49.166Z,28.13
2023-03-31T18:21:15.980Z,21.60
2023-03-31T18:23:42.640Z,26.92
2023-03-31T18:26:11.834Z,26.83
2023-03-31T18:31:08.401Z,19.55
2023-03-31T18:33:35.843Z,17.30
2023-03-31T18:36:03.412Z,16.27
2023-03-31T18:38:30.401Z,21.40
2023-03-31T18:40:57.065Z,20.27
2023-03-31T18:43:24.752Z,19.25
2023-03-31T18:45:53.787Z,22.67
2023-03-31T18:48:23.311Z,20.70
2023-03-31T18:50:51.989Z,25.83
2023-03-31T18:53:22.362Z,20.05
2023-03-31T18:55:53.156Z,18.67
2023-03-31T18:58:20.055Z,23.15
2023-03-31T19:00:46.965Z,27.55
2023-03-31T19:03:14.080Z,21.48
2023-03-31T19:05:40.996Z,14.25
2023-03-31T19:08:07.691Z,31.88
2023-03-31T19:10:34.387Z,23.98
2023-03-31T19:13:01.007Z,24.38
2023-03-31T19:15:28.112Z,31.77
2023-03-31T19:17:55.117Z,32.63
2023-03-31T19:20:22.286Z,36.03
2023-03-31T19:22:50.912Z,33.70
2023-03-31T19:25:19.152Z,29.10
2023-03-31T19:27:46.941Z,29.42
2023-03-31T19:30:19.346Z,27.40
2023-03-31T19:32:48.852Z,31.80
2023-03-31T19:35:19.714Z,29.20
2023-03-31T19:37:47.501Z,31.42
2023-03-31T19:40:14.633Z,38.33
2023-03-31T19:42:42.340Z,53.78
2023-03-31T19:45:09.503Z,54.97
2023-03-31T19:47:36.604Z,64.38
2023-03-31T19:50:03.959Z,44.38
2023-03-31T19:52:30.771Z,50.25
2023-03-31T19:54:57.505Z,60.58
2023-03-31T19:57:24.195Z,56.03
2023-03-31T19:59:50.885Z,63.17
2023-03-31T20:02:17.864Z,62.83
2023-03-31T20:04:44.957Z,61.22
2023-03-31T20:07:11.851Z,57.88
2023-03-31T20:09:38.529Z,58.47
2023-03-31T20:12:05.480Z,58.30
2023-03-31T20:14:32.124Z,53.95
2023-03-31T20:17:01.190Z,53.45
2023-03-31T20:19:27.900Z,52.50
2023-03-31T20:21:56.077Z,41.72
2023-03-31T20:24:22.808Z,55.58
2023-03-31T20:26:49.897Z,55.75
2023-03-31T20:29:16.828Z,54.00
2023-03-31T20:31:43.842Z,50.40
2023-03-31T20:34:16.831Z,49.80
2023-03-31T20:36:45.820Z,48.80
2023-03-31T20:39:14.278Z,44.50
2023-03-31T20:41:41.487Z,47.97
2023-03-31T20:44:12.013Z,40.70
2023-03-31T20:46:42.004Z,42.05
2023-03-31T20:49:09.268Z,42.67
2023-03-31T20:51:38.779Z,44.60
2023-03-31T20:54:07.115Z,46.30
2023-03-31T20:56:39.645Z,41.50
2023-03-31T20:59:08.874Z,38.90
2023-03-31T21:01:36.676Z,41.83
2023-03-31T21:04:05.837Z,34.63
2023-03-31T21:06:46.791Z,34.80
2023-03-31T21:09:15.057Z,37.17
2023-03-31T21:11:42.043Z,42.58
2023-03-31T21:14:15.160Z,38.42
2023-03-31T21:16:41.933Z,40.80
2023-03-31T21:19:08.762Z,41.08
2023-03-31T21:21:36.268Z,40.72
2023-03-31T21:24:03.314Z,40.70
2023-03-31T21:26:30.103Z,39.80
2023-03-31T21:28:56.818Z,40.35
2023-03-31T21:31:25.336Z,32.50
2023-03-31T21:33:53.312Z,36.47
2023-03-31T21:36:22.750Z,38.33
2023-03-31T21:38:50.325Z,36.70
2023-03-31T21:41:20.005Z,36.50
2023-03-31T21:43:47.228Z,34.63
2023-03-31T21:46:18.290Z,32.83
2023-03-31T21:48:45.316Z,35.88
2023-03-31T21:51:11.992Z,33.42
2023-03-31T21:53:38.662Z,38.92
2023-03-31T21:56:05.537Z,37.42
2023-03-31T21:58:32.979Z,35.92
2023-03-31T22:01:02.801Z,36.20
2023-03-31T22:03:32.240Z,36.20
2023-03-31T22:05:59.475Z,36.17
2023-03-31T22:08:29.411Z,36.83
2023-03-31T22:10:57.594Z,37.97
2023-03-31T22:13:24.628Z,35.72
2023-03-31T22:15:51.442Z,36.05
2023-03-31T22:18:18.388Z,37.95
2023-03-31T22:20:46.959Z,35.90
2023-03-31T22:23:13.624Z,36.53
2023-03-31T22:25:40.447Z,38.30
2023-03-31T22:28:07.535Z,35.83
2023-03-31T22:30:34.945Z,35.45
2023-03-31T22:33:02.000Z,37.03
2023-03-31T22:35:28.963Z,42.17
2023-03-31T22:37:55.770Z,39.47
2023-03-31T22:40:22.498Z,41.75
2023-03-31T22:42:49.141Z,46.28
2023-03-31T22:45:16.513Z,36.40
2023-03-31T22:47:43.290Z,40.58
2023-03-31T22:50:11.119Z,30.45
2023-03-31T22:52:38.178Z,30.20
2023-03-31T22:55:06.391Z,27.50
2023-03-31T22:57:33.347Z,23.23
2023-03-31T23:00:00.811Z,29.45
2023-03-31T23:02:27.625Z,24.10
2023-03-31T23:04:54.337Z,30.20
2023-03-31T23:07:22.053Z,21.77
2023-03-31T23:09:49.080Z,25.20
2023-03-31T23:12:16.028Z,19.08
2023-03-31T23:14:42.710Z,19.17
2023-03-31T23:17:09.429Z,20.63
2023-03-31T23:19:37.849Z,21.60
2023-03-31T23:22:04.578Z,15.38
2023-03-31T23:24:31.299Z,15.80
2023-03-31T23:26:58.055Z,20.00
2023-03-31T23:29:24.777Z,18.58
2023-03-31T23:31:51.753Z,19.52
2023-03-31T23:34:18.486Z,18.35
2023-03-31T23:36:45.160Z,17.98
2023-03-31T23:39:11.840Z,20.67
2023-03-31T23:41:38.577Z,22.25
2023-03-31T23:44:06.310Z,22.50
2023-03-31T23:46:33.737Z,17.58
2023-03-31T23:49:02.806Z,20.15
2023-03-31T23:51:29.703Z,28.70
2023-03-31T23:53:56.446Z,20.52
2023-03-31T23:56:23.185Z,36.85
2023-03-31T23:58:50.036Z,41.50
